Pine Canyon, Utah
Current Conditions -  °F | °C
As of 5:53 PM on Monday 24 Nov 2014 (Local Time) from KSLC Reporting Station
Few Clouds Few Clouds  
Wind Chill:   Ceiling: Unl
Heat Index:   Visibility: 10mi
Dew Point: -6°   Wind: 3mph
Humidity: 57%   Direction: 220°SW
Pressure: 30.42"   Gusts: NA
Location:  40.5393°N, 112.353°W
Report Text: KSLC 250053Z 22003KT 10SM FEW060 FEW200 02/M06 A3042 RMK AO2 SLP309 T00221056
Loading
Personal Weather Stations






























Interactive Weather Map New forecast layout! Learn more

10-Day Weather Forecast

Advertisements
Track Severe Weather on mobile